Time,TemperatureF,DewpointF,PressureIn,WindDirection,WindDirectionDegrees,WindSpeedMPH,WindSpeedGustMPH,Humidity,HourlyPrecipIn,Conditions,Clouds,dailyrainin,SoftwareType,DateUTC
2013-03-07 00:00:00,32.2,23.9,29.52,SW,227,0.0,0.0,71,0.00,,---,0.00,VWS V14.01,2013-03-07 07:00:00,
2013-03-07 00:05:00,33.8,18.0,29.52,SSE,152,6.3,8.3,52,0.00,,---,0.00,VWS V14.01,2013-03-07 07:05:00,
2013-03-07 00:10:00,34.0,17.3,29.52,SSW,200,3.6,4.0,50,0.00,,---,0.00,VWS V14.01,2013-03-07 07:10:00,
2013-03-07 00:15:00,34.5,15.9,29.52,South,180,3.1,3.1,46,0.00,,---,0.00,VWS V14.01,2013-03-07 07:15:00,
2013-03-07 00:20:00,34.7,16.0,29.52,South,189,2.7,6.3,46,0.00,,---,0.00,VWS V14.01,2013-03-07 07:20:00,
2013-03-07 00:25:00,34.7,16.5,29.52,SSW,193,0.0,4.0,47,0.00,,---,0.00,VWS V14.01,2013-03-07 07:25:00,
2013-03-07 00:30:00,34.9,17.2,29.52,South,176,6.7,8.3,48,0.00,,---,0.00,VWS V14.01,2013-03-07 07:30:00,
2013-03-07 00:35:00,34.0,19.1,29.52,South,176,8.7,8.7,54,0.00,,---,0.00,VWS V14.01,2013-03-07 07:35:00,
2013-03-07 00:40:00,34.3,19.0,29.52,SSE,161,0.0,4.9,53,0.00,,---,0.00,VWS V14.01,2013-03-07 07:40:00,
2013-03-07 00:45:00,34.3,18.1,29.52,SW,235,4.0,4.0,51,0.00,,---,0.00,VWS V14.01,2013-03-07 07:45:00,
2013-03-07 00:50:00,34.5,18.3,29.52,SSE,161,5.4,11.0,51,0.00,,---,0.00,VWS V14.01,2013-03-07 07:50:00,
2013-03-07 00:55:00,34.3,18.1,29.52,SSW,197,3.6,6.3,51,0.00,,---,0.00,VWS V14.01,2013-03-07 07:55:00,
2013-03-07 01:00:00,34.3,17.6,29.52,SW,227,3.6,7.6,50,0.00,,---,0.00,VWS V14.01,2013-03-07 08:00:00,
2013-03-07 01:05:00,34.2,17.9,29.55,South,174,4.0,12.3,51,0.00,,---,0.00,VWS V14.01,2013-03-07 08:05:00,
2013-03-07 01:10:00,34.0,17.8,29.55,SSE,153,7.6,7.6,51,0.00,,---,0.00,VWS V14.01,2013-03-07 08:10:00,
2013-03-07 01:15:00,34.2,17.5,29.55,SSE,164,0.0,6.3,50,0.00,,---,0.00,VWS V14.01,2013-03-07 08:15:00,
2013-03-07 01:20:00,34.0,17.3,29.55,SSW,212,5.8,8.1,50,0.00,,---,0.00,VWS V14.01,2013-03-07 08:20:00,
2013-03-07 01:25:00,34.2,16.5,29.55,South,178,5.4,6.3,48,0.00,,---,0.00,VWS V14.01,2013-03-07 08:25:00,
2013-03-07 01:30:00,34.3,16.2,29.55,SSE,165,7.6,12.3,47,0.00,,---,0.00,VWS V14.01,2013-03-07 08:30:00,
2013-03-07 01:35:00,34.3,15.7,29.55,SSE,153,5.4,8.3,46,0.00,,---,0.00,VWS V14.01,2013-03-07 08:35:00,
2013-03-07 01:40:00,34.3,15.7,29.55,South,169,5.8,6.3,46,0.00,,---,0.00,VWS V14.01,2013-03-07 08:40:00,
2013-03-07 01:45:00,34.2,15.6,29.55,SSW,202,7.6,11.0,46,0.00,,---,0.00,VWS V14.01,2013-03-07 08:45:00,
2013-03-07 01:50:00,34.0,15.9,29.55,SW,231,3.1,5.8,47,0.00,,---,0.00,VWS V14.01,2013-03-07 08:50:00,
2013-03-07 01:55:00,33.8,15.2,29.55,SW,217,3.6,3.6,46,0.00,,---,0.00,VWS V14.01,2013-03-07 08:55:00,
2013-03-07 02:00:00,33.8,15.7,29.55,West,264,0.0,4.0,47,0.00,,---,0.00,VWS V14.01,2013-03-07 09:00:00,
2013-03-07 02:05:00,33.3,16.2,29.55,WNW,303,0.0,2.7,49,0.00,,---,0.00,VWS V14.01,2013-03-07 09:05:00,
2013-03-07 02:10:00,32.5,16.0,29.55,SW,223,0.0,0.0,50,0.00,,---,0.00,VWS V14.01,2013-03-07 09:10:00,
2013-03-07 02:15:00,33.1,15.5,29.55,SSE,154,5.8,12.8,48,0.00,,---,0.00,VWS V14.01,2013-03-07 09:15:00,
2013-03-07 02:20:00,33.6,15.6,29.55,South,185,8.1,8.7,47,0.00,,---,0.00,VWS V14.01,2013-03-07 09:20:00,
2013-03-07 02:25:00,33.8,15.2,29.55,SE,139,5.8,11.9,46,0.00,,---,0.00,VWS V14.01,2013-03-07 09:25:00,
2013-03-07 02:30:00,33.6,15.6,29.55,SSE,158,12.3,14.1,47,0.00,,---,0.00,VWS V14.01,2013-03-07 09:30:00,
2013-03-07 02:35:00,33.6,15.1,29.55,SE,142,7.6,8.3,46,0.00,,---,0.00,VWS V14.01,2013-03-07 09:35:00,
2013-03-07 02:40:00,33.6,15.1,29.55,WNW,291,0.0,3.1,46,0.00,,---,0.00,VWS V14.01,2013-03-07 09:40:00,
2013-03-07 02:45:00,33.3,14.7,29.55,NW,322,0.0,0.0,46,0.00,,---,0.00,VWS V14.01,2013-03-07 09:45:00,
2013-03-07 02:50:00,33.3,15.7,29.58,WNW,302,12.3,13.6,48,0.00,,---,0.00,VWS V14.01,2013-03-07 09:50:00,
2013-03-07 02:55:00,31.8,17.5,29.58,WNW,282,5.4,12.8,55,0.00,,---,0.00,VWS V14.01,2013-03-07 09:55:00,
2013-03-07 03:00:00,31.5,17.2,29.58,SW,233,12.3,12.3,55,0.00,,---,0.00,VWS V14.01,2013-03-07 10:00:00,
2013-03-07 03:05:00,31.6,16.5,29.58,WSW,256,10.1,12.8,53,0.00,,---,0.00,VWS V14.01,2013-03-07 10:05:00,
2013-03-07 03:10:00,31.8,15.8,29.58,WSW,246,8.7,11.0,51,0.00,,---,0.00,VWS V14.01,2013-03-07 10:10:00,
2013-03-07 03:15:00,32.2,14.7,29.58,WSW,253,5.8,8.7,48,0.00,,---,0.00,VWS V14.01,2013-03-07 10:15:00,
2013-03-07 03:20:00,32.4,13.9,29.58,WNW,284,4.0,4.0,46,0.00,,---,0.00,VWS V14.01,2013-03-07 10:20:00,
2013-03-07 03:25:00,32.4,13.4,29.58,West,260,5.4,10.5,45,0.00,,---,0.00,VWS V14.01,2013-03-07 10:25:00,
2013-03-07 03:30:00,32.4,12.9,29.58,WSW,255,5.8,6.3,44,0.00,,---,0.00,VWS V14.01,2013-03-07 10:30:00,
2013-03-07 03:35:00,32.4,12.9,29.58,SW,219,6.3,6.3,44,0.00,,---,0.00,VWS V14.01,2013-03-07 10:35:00,
2013-03-07 03:40:00,32.0,12.6,29.58,South,181,0.0,3.1,44,0.00,,---,0.00,VWS V14.01,2013-03-07 10:40:00,
2013-03-07 03:45:00,31.6,16.0,29.58,ENE,68,3.1,4.0,52,0.00,,---,0.00,VWS V14.01,2013-03-07 10:45:00,
2013-03-07 03:50:00,30.7,16.1,29.61,NE,34,4.5,5.8,54,0.00,,---,0.00,VWS V14.01,2013-03-07 10:50:00,
2013-03-07 03:55:00,30.2,16.4,29.61,NE,50,4.9,4.9,56,0.00,,---,0.00,VWS V14.01,2013-03-07 10:55:00,
2013-03-07 04:00:00,29.8,17.3,29.61,ENE,69,5.8,5.8,59,0.00,,---,0.00,VWS V14.01,2013-03-07 11:00:00,
2013-03-07 04:06:00,29.5,18.1,29.61,SE,145,3.1,5.8,62,0.00,,---,0.00,VWS V14.01,2013-03-07 11:06:00,
2013-03-07 04:11:00,30.0,16.2,29.61,ESE,113,0.0,0.0,56,0.00,,---,0.00,VWS V14.01,2013-03-07 11:11:00,
2013-03-07 04:15:00,29.7,16.3,29.61,NNE,25,2.7,5.8,57,0.00,,---,0.00,VWS V14.01,2013-03-07 11:15:00,
2013-03-07 04:21:00,29.1,17.0,29.61,NNE,25,0.0,0.0,60,0.00,,---,0.00,VWS V14.01,2013-03-07 11:21:00,
2013-03-07 04:26:00,28.6,17.6,29.61,ENE,78,4.0,4.0,63,0.00,,---,0.00,VWS V14.01,2013-03-07 11:26:00,
2013-03-07 04:31:00,28.2,17.3,29.61,NE,49,2.2,2.2,63,0.00,,---,0.00,VWS V14.01,2013-03-07 11:31:00,
2013-03-07 04:36:00,28.4,17.1,29.64,ENE,72,0.0,3.6,62,0.00,,---,0.00,VWS V14.01,2013-03-07 11:36:00,
2013-03-07 04:41:00,28.2,16.9,29.64,NE,52,4.0,4.0,62,0.00,,---,0.00,VWS V14.01,2013-03-07 11:41:00,
2013-03-07 04:46:00,28.0,17.1,29.64,East,84,2.2,4.0,63,0.00,,---,0.00,VWS V14.01,2013-03-07 11:46:00,
2013-03-07 04:51:00,28.0,17.1,29.64,East,84,0.0,0.0,63,0.00,,---,0.00,VWS V14.01,2013-03-07 11:51:00,
2013-03-07 04:56:00,28.0,17.1,29.64,East,84,0.0,0.0,63,0.00,,---,0.00,VWS V14.01,2013-03-07 11:56:00,
2013-03-07 05:01:00,28.0,17.1,29.64,East,84,0.0,0.0,63,0.00,,---,0.00,VWS V14.01,2013-03-07 12:01:00,
2013-03-07 05:06:00,27.9,16.9,29.64,NNW,336,0.0,0.0,63,0.00,,---,0.00,VWS V14.01,2013-03-07 12:06:00,
2013-03-07 05:11:00,27.9,17.3,29.64,NNW,336,0.0,0.0,64,0.00,,---,0.00,VWS V14.01,2013-03-07 12:11:00,
2013-03-07 05:16:00,27.5,17.3,29.64,NNW,335,0.0,0.0,65,0.00,,---,0.00,VWS V14.01,2013-03-07 12:16:00,
2013-03-07 05:21:00,27.3,16.8,29.64,NNW,335,0.0,0.0,64,0.00,,---,0.00,VWS V14.01,2013-03-07 12:21:00,
2013-03-07 05:26:00,27.3,16.8,29.64,NNW,335,0.0,0.0,64,0.00,,---,0.00,VWS V14.01,2013-03-07 12:26:00,
2013-03-07 05:31:00,27.3,16.8,29.64,North,350,0.0,0.0,64,0.00,,---,0.00,VWS V14.01,2013-03-07 12:31:00,
2013-03-07 05:36:00,27.5,16.6,29.64,ESE,115,0.0,0.0,63,0.00,,---,0.00,VWS V14.01,2013-03-07 12:36:00,
2013-03-07 05:41:00,27.5,16.6,29.64,ESE,115,0.0,0.0,63,0.00,,---,0.00,VWS V14.01,2013-03-07 12:41:00,
2013-03-07 05:46:00,27.3,16.4,29.64,ESE,115,0.0,0.0,63,0.00,,---,0.00,VWS V14.01,2013-03-07 12:46:00,
2013-03-07 05:51:00,27.1,16.6,29.64,ESE,115,0.0,0.0,64,0.00,,---,0.00,VWS V14.01,2013-03-07 12:51:00,
2013-03-07 05:56:00,27.1,16.6,29.64,ESE,115,0.0,0.0,64,0.00,,---,0.00,VWS V14.01,2013-03-07 12:56:00,
2013-03-07 06:01:00,27.1,16.2,29.64,ESE,115,0.0,0.0,63,0.00,,---,0.00,VWS V14.01,2013-03-07 13:01:00,
2013-03-07 06:06:00,27.1,16.2,29.64,WSW,247,0.0,0.0,63,0.00,,---,0.00,VWS V14.01,2013-03-07 13:06:00,
2013-03-07 06:11:00,27.1,16.2,29.64,WSW,240,0.0,4.0,63,0.00,,---,0.00,VWS V14.01,2013-03-07 13:11:00,
2013-03-07 06:16:00,27.1,15.9,29.64,West,269,4.0,4.0,62,0.00,,---,0.00,VWS V14.01,2013-03-07 13:16:00,
2013-03-07 06:21:00,27.1,15.5,29.64,SW,233,5.8,5.8,61,0.00,,---,0.00,VWS V14.01,2013-03-07 13:21:00,
2013-03-07 06:26:00,27.9,16.5,29.64,WNW,291,5.8,7.6,62,0.00,,---,0.00,VWS V14.01,2013-03-07 13:26:00,
2013-03-07 06:31:00,28.2,16.1,29.64,WNW,291,3.1,5.4,60,0.00,,---,0.00,VWS V14.01,2013-03-07 13:31:00,
2013-03-07 06:36:00,28.2,16.1,29.67,West,274,4.9,4.9,60,0.00,,---,0.00,VWS V14.01,2013-03-07 13:36:00,
2013-03-07 06:41:00,28.2,15.8,29.67,WSW,237,4.0,4.5,59,0.00,,---,0.00,VWS V14.01,2013-03-07 13:41:00,
2013-03-07 06:46:00,27.5,15.1,29.67,SW,218,3.6,4.0,59,0.00,,---,0.00,VWS V14.01,2013-03-07 13:46:00,
2013-03-07 06:51:00,27.1,14.3,29.67,WSW,238,4.0,4.0,58,0.00,,---,0.00,VWS V14.01,2013-03-07 13:51:00,
2013-03-07 06:56:00,27.0,14.6,29.67,WSW,241,0.0,0.0,59,0.00,,---,0.00,VWS V14.01,2013-03-07 13:56:00,
2013-03-07 07:01:00,26.8,14.8,29.67,WSW,256,0.0,2.2,60,0.00,,---,0.00,VWS V14.01,2013-03-07 14:01:00,
2013-03-07 07:06:00,26.6,14.6,29.67,WSW,256,0.0,0.0,60,0.00,,---,0.00,VWS V14.01,2013-03-07 14:06:00,
2013-03-07 07:11:00,26.4,14.4,29.67,NE,43,3.6,3.6,60,0.00,,---,0.00,VWS V14.01,2013-03-07 14:11:00,
2013-03-07 07:16:00,26.4,14.4,29.67,West,280,6.3,6.3,60,0.00,,---,0.00,VWS V14.01,2013-03-07 14:16:00,
2013-03-07 07:21:00,26.8,14.0,29.67,WNW,302,0.0,0.0,58,0.00,,---,0.00,VWS V14.01,2013-03-07 14:21:00,
2013-03-07 07:26:00,26.4,13.7,29.67,West,265,0.0,0.0,58,0.00,,---,0.00,VWS V14.01,2013-03-07 14:26:00,
2013-03-07 07:31:00,26.4,13.3,29.67,WSW,237,0.0,3.6,57,0.00,,---,0.00,VWS V14.01,2013-03-07 14:31:00,
2013-03-07 07:36:00,26.4,12.9,29.67,WSW,237,0.0,0.0,56,0.00,,---,0.00,VWS V14.01,2013-03-07 14:36:00,
2013-03-07 07:41:00,26.2,13.1,29.67,WSW,237,0.0,0.0,57,0.00,,---,0.00,VWS V14.01,2013-03-07 14:41:00,
2013-03-07 07:47:00,25.9,12.8,29.67,WSW,237,0.0,0.0,57,0.00,,---,0.00,VWS V14.01,2013-03-07 14:47:00,
2013-03-07 07:52:00,25.5,12.4,29.70,WSW,238,0.0,0.0,57,0.00,,---,0.00,VWS V14.01,2013-03-07 14:52:00,
2013-03-07 07:57:00,25.7,12.6,29.70,WSW,238,0.0,0.0,57,0.00,,---,0.00,VWS V14.01,2013-03-07 14:57:00,
2013-03-07 08:02:00,25.7,13.0,29.70,WSW,238,0.0,0.0,58,0.00,,---,0.00,VWS V14.01,2013-03-07 15:02:00,
2013-03-07 08:07:00,25.9,13.5,29.70,WSW,238,0.0,0.0,59,0.00,,---,0.00,VWS V14.01,2013-03-07 15:07:00,
2013-03-07 08:12:00,26.4,14.1,29.70,SSE,148,0.0,0.0,59,0.00,,---,0.00,VWS V14.01,2013-03-07 15:12:00,
2013-03-07 08:17:00,27.0,14.9,29.70,SW,214,0.0,0.0,60,0.00,,---,0.00,VWS V14.01,2013-03-07 15:17:00,
2013-03-07 08:22:00,27.5,15.4,29.70,SW,215,0.0,0.0,60,0.00,,---,0.00,VWS V14.01,2013-03-07 15:22:00,
2013-03-07 08:27:00,27.7,15.6,29.70,SW,215,0.0,0.0,60,0.00,,---,0.00,VWS V14.01,2013-03-07 15:27:00,
2013-03-07 08:32:00,28.2,15.0,29.70,SW,215,0.0,0.0,57,0.00,,---,0.00,VWS V14.01,2013-03-07 15:32:00,
2013-03-07 08:37:00,28.8,15.1,29.70,SW,215,0.0,0.0,56,0.00,,---,0.00,VWS V14.01,2013-03-07 15:37:00,
2013-03-07 08:42:00,29.8,15.7,29.70,SW,215,0.0,0.0,55,0.00,,---,0.00,VWS V14.01,2013-03-07 15:42:00,
2013-03-07 08:47:00,30.9,16.2,29.70,SW,215,0.0,0.0,54,0.00,,---,0.00,VWS V14.01,2013-03-07 15:47:00,
2013-03-07 08:52:00,31.5,15.9,29.70,SW,215,0.0,0.0,52,0.00,,---,0.00,VWS V14.01,2013-03-07 15:52:00,
2013-03-07 08:57:00,32.4,15.4,29.70,SW,215,0.0,0.0,49,0.00,,---,0.00,VWS V14.01,2013-03-07 15:57:00,
2013-03-07 09:02:00,33.1,14.6,29.70,ESE,121,3.1,3.1,46,0.00,,---,0.00,VWS V14.01,2013-03-07 16:02:00,
2013-03-07 09:07:00,33.3,14.2,29.70,ESE,118,4.0,5.4,45,0.00,,---,0.00,VWS V14.01,2013-03-07 16:07:00,
2013-03-07 09:12:00,33.6,13.5,29.70,ENE,73,0.0,2.2,43,0.00,,---,0.00,VWS V14.01,2013-03-07 16:12:00,
2013-03-07 09:17:00,34.2,14.0,29.70,ENE,78,0.0,2.7,43,0.00,,---,0.00,VWS V14.01,2013-03-07 16:17:00,
2013-03-07 09:22:00,33.8,12.6,29.70,SE,143,6.3,6.3,41,0.00,,---,0.00,VWS V14.01,2013-03-07 16:22:00,
2013-03-07 09:27:00,33.4,12.8,29.70,SSE,164,2.7,2.7,42,0.00,,---,0.00,VWS V14.01,2013-03-07 16:27:00,
2013-03-07 09:32:00,33.8,12.6,29.70,ESE,103,3.6,5.4,41,0.00,,---,0.00,VWS V14.01,2013-03-07 16:32:00,
2013-03-07 09:37:00,34.2,12.9,29.70,NE,51,2.7,2.7,41,0.00,,---,0.00,VWS V14.01,2013-03-07 16:37:00,
2013-03-07 09:42:00,34.3,13.6,29.70,SSE,165,6.3,7.6,42,0.00,,---,0.00,VWS V14.01,2013-03-07 16:42:00,
2013-03-07 09:47:00,34.2,13.5,29.70,SE,128,6.3,8.7,42,0.00,,---,0.00,VWS V14.01,2013-03-07 16:47:00,
2013-03-07 09:52:00,34.3,13.6,29.70,East,84,2.7,3.6,42,0.00,,---,0.00,VWS V14.01,2013-03-07 16:52:00,
2013-03-07 09:57:00,35.1,13.8,29.70,SE,145,5.8,6.7,41,0.00,,---,0.00,VWS V14.01,2013-03-07 16:57:00,
2013-03-07 10:02:00,35.1,13.8,29.70,SE,134,5.8,5.8,41,0.00,,---,0.00,VWS V14.01,2013-03-07 17:02:00,
2013-03-07 10:07:00,34.9,13.6,29.70,SE,146,5.8,8.7,41,0.00,,---,0.00,VWS V14.01,2013-03-07 17:07:00,
2013-03-07 10:12:00,35.1,13.8,29.70,ENE,57,3.1,5.4,41,0.00,,---,0.00,VWS V14.01,2013-03-07 17:12:00,
2013-03-07 10:17:00,36.3,14.3,29.70,NE,51,6.3,6.3,40,0.00,,---,0.00,VWS V14.01,2013-03-07 17:17:00,
2013-03-07 10:22:00,36.7,14.6,29.70,SSE,149,3.6,5.4,40,0.00,,---,0.00,VWS V14.01,2013-03-07 17:22:00,
2013-03-07 10:27:00,35.6,13.1,29.70,SE,141,4.0,4.0,39,0.00,,---,0.00,VWS V14.01,2013-03-07 17:27:00,
2013-03-07 10:32:00,35.8,13.8,29.70,South,171,0.0,0.0,40,0.00,,---,0.00,VWS V14.01,2013-03-07 17:32:00,
2013-03-07 10:37:00,36.0,13.4,29.70,SSW,196,0.0,0.0,39,0.00,,---,0.00,VWS V14.01,2013-03-07 17:37:00,
2013-03-07 10:42:00,36.1,14.2,29.70,SSW,204,2.2,2.7,40,0.00,,---,0.00,VWS V14.01,2013-03-07 17:42:00,
2013-03-07 10:47:00,36.3,14.3,29.70,SE,124,10.5,13.2,40,0.00,,---,0.00,VWS V14.01,2013-03-07 17:47:00,
2013-03-07 10:52:00,36.3,14.3,29.70,SE,140,5.8,6.3,40,0.00,,---,0.00,VWS V14.01,2013-03-07 17:52:00,
2013-03-07 10:57:00,36.1,14.2,29.70,SE,146,4.0,8.7,40,0.00,,---,0.00,VWS V14.01,2013-03-07 17:57:00,
2013-03-07 11:02:00,35.8,13.8,29.70,SSE,152,11.0,11.0,40,0.00,,---,0.00,VWS V14.01,2013-03-07 18:02:00,
2013-03-07 11:07:00,36.1,14.2,29.70,SSW,194,3.6,8.1,40,0.00,,---,0.00,VWS V14.01,2013-03-07 18:07:00,
2013-03-07 11:12:00,35.8,13.8,29.70,SSE,160,7.2,7.2,40,0.00,,---,0.00,VWS V14.01,2013-03-07 18:12:00,
2013-03-07 11:17:00,36.1,14.2,29.70,SW,233,5.8,5.8,40,0.00,,---,0.00,VWS V14.01,2013-03-07 18:17:00,
2013-03-07 11:22:00,36.9,14.2,29.70,SE,126,4.9,5.8,39,0.00,,---,0.00,VWS V14.01,2013-03-07 18:22:00,
2013-03-07 11:27:00,36.5,14.5,29.70,SE,135,11.9,12.8,40,0.00,,---,0.00,VWS V14.01,2013-03-07 18:27:00,
2013-03-07 11:32:00,36.7,14.6,29.70,SSW,201,3.1,3.6,40,0.00,,---,0.00,VWS V14.01,2013-03-07 18:32:00,
2013-03-07 11:37:00,37.0,14.4,29.70,SE,136,7.6,7.6,39,0.00,,---,0.00,VWS V14.01,2013-03-07 18:37:00,
2013-03-07 11:42:00,36.7,14.1,29.70,SE,126,7.6,7.6,39,0.00,,---,0.00,VWS V14.01,2013-03-07 18:42:00,
2013-03-07 11:47:00,37.2,14.6,29.70,SE,125,8.3,9.2,39,0.00,,---,0.00,VWS V14.01,2013-03-07 18:47:00,
2013-03-07 11:52:00,37.4,14.7,29.70,SSE,162,17.4,17.4,39,0.00,,---,0.00,VWS V14.01,2013-03-07 18:52:00,
2013-03-07 11:57:00,37.0,14.4,29.70,South,173,8.7,8.7,39,0.00,,---,0.00,VWS V14.01,2013-03-07 18:57:00,
2013-03-07 12:02:00,37.0,14.4,29.70,SE,138,5.4,12.8,39,0.00,,---,0.00,VWS V14.01,2013-03-07 19:02:00,
2013-03-07 12:07:00,37.4,13.5,29.70,SSE,162,3.1,3.6,37,0.00,,---,0.00,VWS V14.01,2013-03-07 19:07:00,
2013-03-07 12:12:00,37.4,13.5,29.70,SE,143,3.6,3.6,37,0.00,,---,0.00,VWS V14.01,2013-03-07 19:12:00,
2013-03-07 12:17:00,36.7,13.5,29.70,SSE,163,13.6,13.6,38,0.00,,---,0.00,VWS V14.01,2013-03-07 19:17:00,
2013-03-07 12:22:00,36.5,13.3,29.70,SSE,147,8.7,8.7,38,0.00,,---,0.00,VWS V14.01,2013-03-07 19:22:00,
2013-03-07 12:27:00,37.4,13.5,29.70,SE,138,6.3,6.3,37,0.00,,---,0.00,VWS V14.01,2013-03-07 19:27:00,
2013-03-07 12:32:00,37.6,13.7,29.70,SSE,147,13.2,15.0,37,0.00,,---,0.00,VWS V14.01,2013-03-07 19:32:00,
2013-03-07 12:37:00,37.6,13.1,29.70,SE,144,10.5,13.2,36,0.00,,---,0.00,VWS V14.01,2013-03-07 19:37:00,
2013-03-07 12:42:00,37.6,13.1,29.70,SE,146,7.2,7.2,36,0.00,,---,0.00,VWS V14.01,2013-03-07 19:42:00,
2013-03-07 12:47:00,36.7,12.3,29.70,ESE,119,10.5,15.9,36,0.00,,---,0.00,VWS V14.01,2013-03-07 19:47:00,
2013-03-07 12:52:00,37.9,14.0,29.70,SSE,161,10.1,10.1,37,0.00,,---,0.00,VWS V14.01,2013-03-07 19:52:00,
2013-03-07 12:57:00,37.2,12.7,29.70,SSE,167,3.1,8.3,36,0.00,,---,0.00,VWS V14.01,2013-03-07 19:57:00,
2013-03-07 13:02:00,37.0,12.6,29.70,SE,141,11.0,11.0,36,0.00,,---,0.00,VWS V14.01,2013-03-07 20:02:00,
2013-03-07 13:07:00,37.9,13.4,29.70,SSE,157,8.1,8.1,36,0.00,,---,0.00,VWS V14.01,2013-03-07 20:07:00,
2013-03-07 13:12:00,37.8,12.6,29.70,South,182,2.7,8.7,35,0.00,,---,0.00,VWS V14.01,2013-03-07 20:12:00,
2013-03-07 13:17:00,37.9,12.7,29.70,ESE,111,15.4,15.4,35,0.00,,---,0.00,VWS V14.01,2013-03-07 20:17:00,
2013-03-07 13:22:00,37.9,12.7,29.70,South,177,6.3,6.3,35,0.00,,---,0.00,VWS V14.01,2013-03-07 20:22:00,
2013-03-07 13:27:00,38.8,12.9,29.70,SSE,154,5.8,7.6,34,0.00,,---,0.00,VWS V14.01,2013-03-07 20:27:00,
2013-03-07 13:32:00,38.7,12.7,29.70,SSW,213,7.6,7.6,34,0.00,,---,0.00,VWS V14.01,2013-03-07 20:32:00,
2013-03-07 13:37:00,39.4,13.4,29.70,SSE,147,3.1,4.0,34,0.00,,---,0.00,VWS V14.01,2013-03-07 20:37:00,
2013-03-07 13:42:00,39.2,12.5,29.70,SSE,158,0.0,3.1,33,0.00,,---,0.00,VWS V14.01,2013-03-07 20:42:00,
2013-03-07 13:47:00,39.0,12.4,29.70,SE,136,3.6,3.6,33,0.00,,---,0.00,VWS V14.01,2013-03-07 20:47:00,
2013-03-07 13:52:00,39.0,12.4,29.70,SSE,148,3.6,3.6,33,0.00,,---,0.00,VWS V14.01,2013-03-07 20:52:00,
2013-03-07 13:57:00,39.0,12.4,29.70,SSW,200,0.0,0.0,33,0.00,,---,0.00,VWS V14.01,2013-03-07 20:57:00,
2013-03-07 14:02:00,38.8,11.5,29.70,SW,214,0.0,0.0,32,0.00,,---,0.00,VWS V14.01,2013-03-07 21:02:00,
2013-03-07 14:07:00,38.5,11.2,29.70,SE,131,4.9,5.8,32,0.00,,---,0.00,VWS V14.01,2013-03-07 21:07:00,
2013-03-07 14:12:00,38.5,11.9,29.70,SSE,163,3.6,6.3,33,0.00,,---,0.00,VWS V14.01,2013-03-07 21:12:00,
2013-03-07 14:17:00,38.5,11.2,29.70,SE,137,3.6,4.9,32,0.00,,---,0.00,VWS V14.01,2013-03-07 21:17:00,
2013-03-07 14:22:00,38.5,11.2,29.67,SE,146,4.9,5.4,32,0.00,,---,0.00,VWS V14.01,2013-03-07 21:22:00,
2013-03-07 14:27:00,38.3,11.0,29.67,ESE,106,3.1,6.3,32,0.00,,---,0.00,VWS V14.01,2013-03-07 21:27:00,
2013-03-07 14:32:00,38.5,11.2,29.67,SSE,158,0.0,0.0,32,0.00,,---,0.00,VWS V14.01,2013-03-07 21:32:00,
2013-03-07 14:37:00,38.7,11.4,29.70,SSE,153,0.0,0.0,32,0.00,,---,0.00,VWS V14.01,2013-03-07 21:37:00,
2013-03-07 14:42:00,38.5,11.2,29.70,SSE,151,3.1,4.9,32,0.00,,---,0.00,VWS V14.01,2013-03-07 21:42:00,
2013-03-07 14:47:00,38.5,11.2,29.70,SSE,167,0.0,0.0,32,0.00,,---,0.00,VWS V14.01,2013-03-07 21:47:00,
2013-03-07 14:52:00,38.7,11.4,29.67,SSW,210,0.0,0.0,32,0.00,,---,0.00,VWS V14.01,2013-03-07 21:52:00,
2013-03-07 14:57:00,39.0,11.7,29.67,WSW,252,0.0,0.0,32,0.00,,---,0.00,VWS V14.01,2013-03-07 21:57:00,
2013-03-07 15:02:00,39.2,11.1,29.67,West,262,7.6,7.6,31,0.00,,---,0.00,VWS V14.01,2013-03-07 22:02:00,
2013-03-07 15:07:00,39.0,11.7,29.67,West,272,7.6,7.6,32,0.00,,---,0.00,VWS V14.01,2013-03-07 22:07:00,
2013-03-07 15:12:00,38.8,10.8,29.67,WNW,294,6.3,6.3,31,0.00,,---,0.00,VWS V14.01,2013-03-07 22:12:00,
2013-03-07 15:17:00,38.7,10.6,29.67,West,277,5.8,6.7,31,0.00,,---,0.00,VWS V14.01,2013-03-07 22:17:00,
2013-03-07 15:22:00,38.5,11.2,29.67,WNW,292,3.6,3.6,32,0.00,,---,0.00,VWS V14.01,2013-03-07 22:22:00,
2013-03-07 15:27:00,38.5,11.2,29.67,West,280,3.1,5.8,32,0.00,,---,0.00,VWS V14.01,2013-03-07 22:27:00,
2013-03-07 15:32:00,38.3,11.0,29.67,West,262,4.0,4.0,32,0.00,,---,0.00,VWS V14.01,2013-03-07 22:32:00,
2013-03-07 15:37:00,38.3,10.3,29.67,SW,231,6.7,6.7,31,0.00,,---,0.00,VWS V14.01,2013-03-07 22:37:00,
2013-03-07 15:42:00,38.1,10.2,29.67,West,277,5.8,5.8,31,0.00,,---,0.00,VWS V14.01,2013-03-07 22:42:00,
2013-03-07 15:47:00,38.1,10.2,29.67,West,279,2.2,5.4,31,0.00,,---,0.00,VWS V14.01,2013-03-07 22:47:00,
2013-03-07 15:52:00,38.1,10.2,29.67,WSW,248,3.1,4.9,31,0.00,,---,0.00,VWS V14.01,2013-03-07 22:52:00,
2013-03-07 15:57:00,38.1,10.2,29.67,WSW,242,3.1,3.1,31,0.00,,---,0.00,VWS V14.01,2013-03-07 22:57:00,
2013-03-07 16:02:00,37.9,10.0,29.67,WSW,254,2.7,3.6,31,0.00,,---,0.00,VWS V14.01,2013-03-07 23:02:00,
2013-03-07 16:07:00,37.9,10.7,29.67,WSW,258,2.7,2.7,32,0.00,,---,0.00,VWS V14.01,2013-03-07 23:07:00,
2013-03-07 16:12:00,37.9,10.7,29.67,West,266,2.7,2.7,32,0.00,,---,0.00,VWS V14.01,2013-03-07 23:12:00,
2013-03-07 16:17:00,37.8,10.6,29.67,WSW,256,0.0,0.0,32,0.00,,---,0.00,VWS V14.01,2013-03-07 23:17:00,
2013-03-07 16:22:00,37.9,10.7,29.70,SW,217,0.0,0.0,32,0.00,,---,0.00,VWS V14.01,2013-03-07 23:22:00,
2013-03-07 16:27:00,38.1,10.9,29.70,SW,217,0.0,0.0,32,0.00,,---,0.00,VWS V14.01,2013-03-07 23:27:00,
2013-03-07 16:32:00,38.7,11.4,29.70,SW,217,0.0,0.0,32,0.00,,---,0.00,VWS V14.01,2013-03-07 23:32:00,
2013-03-07 16:37:00,39.0,11.0,29.70,SW,217,0.0,0.0,31,0.00,,---,0.00,VWS V14.01,2013-03-07 23:37:00,
2013-03-07 16:42:00,39.2,11.1,29.70,West,278,0.0,0.0,31,0.00,,---,0.00,VWS V14.01,2013-03-07 23:42:00,
2013-03-07 16:47:00,39.2,11.1,29.70,WNW,291,3.1,4.0,31,0.00,,---,0.00,VWS V14.01,2013-03-07 23:47:00,
2013-03-07 16:52:00,39.2,11.1,29.67,WSW,237,0.0,0.0,31,0.00,,---,0.00,VWS V14.01,2013-03-07 23:52:00,
2013-03-07 16:57:00,39.4,11.3,29.67,West,268,2.7,3.1,31,0.00,,---,0.00,VWS V14.01,2013-03-07 23:57:00,
2013-03-07 17:02:00,39.6,11.4,29.67,SSW,203,0.0,0.0,31,0.00,,---,0.00,VWS V14.01,2013-03-08 00:02:00,
2013-03-07 17:07:00,39.6,11.4,29.67,WSW,253,3.6,4.0,31,0.00,,---,0.00,VWS V14.01,2013-03-08 00:07:00,
2013-03-07 17:12:00,39.2,11.1,29.67,SW,227,4.9,4.9,31,0.00,,---,0.00,VWS V14.01,2013-03-08 00:12:00,
2013-03-07 17:17:00,38.7,10.6,29.67,SW,230,3.6,3.6,31,0.00,,---,0.00,VWS V14.01,2013-03-08 00:17:00,
2013-03-07 17:22:00,38.5,11.2,29.70,SW,229,0.0,0.0,32,0.00,,---,0.00,VWS V14.01,2013-03-08 00:22:00,
2013-03-07 17:27:00,38.3,11.0,29.70,SW,236,0.0,3.1,32,0.00,,---,0.00,VWS V14.01,2013-03-08 00:27:00,
2013-03-07 17:32:00,38.1,10.9,29.70,WSW,244,0.0,0.0,32,0.00,,---,0.00,VWS V14.01,2013-03-08 00:32:00,
2013-03-07 17:37:00,37.8,10.6,29.70,SW,236,3.6,3.6,32,0.00,,---,0.00,VWS V14.01,2013-03-08 00:37:00,
2013-03-07 17:42:00,37.6,10.4,29.70,SW,236,0.0,0.0,32,0.00,,---,0.00,VWS V14.01,2013-03-08 00:42:00,
2013-03-07 17:47:00,37.4,10.2,29.70,SW,235,0.0,2.2,32,0.00,,---,0.00,VWS V14.01,2013-03-08 00:47:00,
2013-03-07 17:52:00,37.4,10.2,29.70,SW,235,0.0,0.0,32,0.00,,---,0.00,VWS V14.01,2013-03-08 00:52:00,
2013-03-07 17:57:00,37.2,10.1,29.70,SW,235,3.1,3.1,32,0.00,,---,0.00,VWS V14.01,2013-03-08 00:57:00,
2013-03-07 18:02:00,37.0,11.3,29.70,ENE,73,4.0,4.0,34,0.00,,---,0.00,VWS V14.01,2013-03-08 01:02:00,
2013-03-07 18:07:00,36.7,12.3,29.70,ENE,60,0.0,0.0,36,0.00,,---,0.00,VWS V14.01,2013-03-08 01:07:00,
2013-03-07 18:12:00,36.1,13.0,29.70,ENE,65,0.0,0.0,38,0.00,,---,0.00,VWS V14.01,2013-03-08 01:12:00,
2013-03-07 18:17:00,35.8,13.3,29.70,ENE,65,0.0,0.0,39,0.00,,---,0.00,VWS V14.01,2013-03-08 01:17:00,
2013-03-07 18:22:00,35.4,13.5,29.67,ENE,64,3.6,3.6,40,0.00,,---,0.00,VWS V14.01,2013-03-08 01:22:00,
2013-03-07 18:27:00,35.1,13.2,29.67,ENE,73,0.0,0.0,40,0.00,,---,0.00,VWS V14.01,2013-03-08 01:27:00,
2013-03-07 18:32:00,34.9,13.6,29.67,ESE,109,0.0,3.1,41,0.00,,---,0.00,VWS V14.01,2013-03-08 01:32:00,
2013-03-07 18:37:00,34.7,13.4,29.70,SE,134,0.0,0.0,41,0.00,,---,0.00,VWS V14.01,2013-03-08 01:37:00,
2013-03-07 18:42:00,34.7,13.4,29.70,SE,143,0.0,0.0,41,0.00,,---,0.00,VWS V14.01,2013-03-08 01:42:00,
2013-03-07 18:47:00,34.5,13.3,29.70,SE,143,0.0,0.0,41,0.00,,---,0.00,VWS V14.01,2013-03-08 01:47:00,
2013-03-07 18:52:00,34.2,12.9,29.70,SE,143,0.0,0.0,41,0.00,,---,0.00,VWS V14.01,2013-03-08 01:52:00,
2013-03-07 18:57:00,33.8,12.6,29.70,SE,143,0.0,0.0,41,0.00,,---,0.00,VWS V14.01,2013-03-08 01:57:00,
2013-03-07 19:02:00,33.4,12.8,29.70,SE,143,0.0,0.0,42,0.00,,---,0.00,VWS V14.01,2013-03-08 02:02:00,
2013-03-07 19:07:00,33.1,12.5,29.70,SE,143,0.0,0.0,42,0.00,,---,0.00,VWS V14.01,2013-03-08 02:07:00,
2013-03-07 19:12:00,32.7,12.2,29.70,SE,143,0.0,0.0,42,0.00,,---,0.00,VWS V14.01,2013-03-08 02:12:00,
2013-03-07 19:17:00,32.4,12.4,29.70,SE,143,0.0,0.0,43,0.00,,---,0.00,VWS V14.01,2013-03-08 02:17:00,
2013-03-07 19:22:00,32.0,12.1,29.70,SE,143,0.0,0.0,43,0.00,,---,0.00,VWS V14.01,2013-03-08 02:22:00,
2013-03-07 19:27:00,31.8,12.4,29.70,SE,143,0.0,0.0,44,0.00,,---,0.00,VWS V14.01,2013-03-08 02:27:00,
2013-03-07 19:32:00,31.3,11.9,29.70,SE,143,0.0,0.0,44,0.00,,---,0.00,VWS V14.01,2013-03-08 02:32:00,
2013-03-07 19:37:00,31.1,12.8,29.70,SSE,147,0.0,0.0,46,0.00,,---,0.00,VWS V14.01,2013-03-08 02:37:00,
2013-03-07 19:42:00,31.1,12.8,29.70,SSW,199,0.0,0.0,46,0.00,,---,0.00,VWS V14.01,2013-03-08 02:42:00,
2013-03-07 19:47:00,30.9,12.6,29.70,SSW,199,0.0,0.0,46,0.00,,---,0.00,VWS V14.01,2013-03-08 02:47:00,
2013-03-07 19:52:00,30.6,12.3,29.70,SSW,199,0.0,0.0,46,0.00,,---,0.00,VWS V14.01,2013-03-08 02:52:00,
2013-03-07 19:57:00,30.6,12.3,29.70,SSW,203,0.0,0.0,46,0.00,,---,0.00,VWS V14.01,2013-03-08 02:57:00,
2013-03-07 20:02:00,30.4,12.1,29.70,SSW,203,0.0,0.0,46,0.00,,---,0.00,VWS V14.01,2013-03-08 03:02:00,
2013-03-07 20:08:00,30.2,12.4,29.73,SSW,203,0.0,0.0,47,0.00,,---,0.00,VWS V14.01,2013-03-08 03:08:00,
2013-03-07 20:13:00,29.8,12.1,29.73,SSW,203,0.0,0.0,47,0.00,,---,0.00,VWS V14.01,2013-03-08 03:13:00,
2013-03-07 20:18:00,29.5,12.7,29.73,SW,214,4.0,4.9,49,0.00,,---,0.00,VWS V14.01,2013-03-08 03:18:00,
2013-03-07 20:23:00,29.3,13.0,29.73,SW,223,0.0,0.0,50,0.00,,---,0.00,VWS V14.01,2013-03-08 03:23:00,
2013-03-07 20:28:00,29.3,13.0,29.73,WSW,239,0.0,0.0,50,0.00,,---,0.00,VWS V14.01,2013-03-08 03:28:00,
2013-03-07 20:33:00,29.5,12.7,29.73,WSW,240,0.0,0.0,49,0.00,,---,0.00,VWS V14.01,2013-03-08 03:33:00,
2013-03-07 20:38:00,29.5,13.1,29.73,West,280,0.0,0.0,50,0.00,,---,0.00,VWS V14.01,2013-03-08 03:38:00,
2013-03-07 20:43:00,29.5,13.1,29.73,West,280,0.0,0.0,50,0.00,,---,0.00,VWS V14.01,2013-03-08 03:43:00,
2013-03-07 20:48:00,29.5,13.1,29.73,West,280,0.0,0.0,50,0.00,,---,0.00,VWS V14.01,2013-03-08 03:48:00,
2013-03-07 20:53:00,29.1,12.8,29.73,West,272,0.0,0.0,50,0.00,,---,0.00,VWS V14.01,2013-03-08 03:53:00,
2013-03-07 20:58:00,28.8,12.9,29.73,WNW,290,0.0,0.0,51,0.00,,---,0.00,VWS V14.01,2013-03-08 03:58:00,
2013-03-07 21:03:00,28.6,12.8,29.73,SW,235,0.0,3.6,51,0.00,,---,0.00,VWS V14.01,2013-03-08 04:03:00,
2013-03-07 21:08:00,28.4,13.0,29.73,SW,235,0.0,0.0,52,0.00,,---,0.00,VWS V14.01,2013-03-08 04:08:00,
2013-03-07 21:13:00,28.2,12.9,29.73,West,266,2.2,3.1,52,0.00,,---,0.00,VWS V14.01,2013-03-08 04:13:00,
2013-03-07 21:18:00,28.2,12.9,29.73,WSW,247,0.0,2.2,52,0.00,,---,0.00,VWS V14.01,2013-03-08 04:18:00,
2013-03-07 21:23:00,28.0,12.7,29.73,WSW,240,0.0,0.0,52,0.00,,---,0.00,VWS V14.01,2013-03-08 04:23:00,
2013-03-07 21:28:00,28.0,12.7,29.73,WSW,257,3.1,4.0,52,0.00,,---,0.00,VWS V14.01,2013-03-08 04:28:00,
2013-03-07 21:33:00,27.9,12.5,29.73,West,262,0.0,3.6,52,0.00,,---,0.00,VWS V14.01,2013-03-08 04:33:00,
2013-03-07 21:38:00,27.9,12.1,29.73,WSW,258,2.2,4.9,51,0.00,,---,0.00,VWS V14.01,2013-03-08 04:38:00,
2013-03-07 21:43:00,27.9,11.6,29.73,WSW,245,3.1,3.1,50,0.00,,---,0.00,VWS V14.01,2013-03-08 04:43:00,
2013-03-07 21:48:00,27.7,11.0,29.73,WSW,246,3.1,3.1,49,0.00,,---,0.00,VWS V14.01,2013-03-08 04:48:00,
2013-03-07 21:53:00,27.5,10.9,29.70,WSW,245,2.7,4.0,49,0.00,,---,0.00,VWS V14.01,2013-03-08 04:53:00,
2013-03-07 21:58:00,27.5,10.9,29.70,WSW,242,2.7,3.6,49,0.00,,---,0.00,VWS V14.01,2013-03-08 04:58:00,
2013-03-07 22:00:00,27.5,10.9,29.70,West,262,3.1,3.6,49,0.00,,---,0.00,VWS V14.01,2013-03-08 05:00:00,
2013-03-07 22:01:00,27.5,10.9,29.70,West,262,3.1,5.8,49,0.00,,---,0.00,VWS V14.01,2013-03-08 05:01:00,
2013-03-07 22:07:00,27.3,10.7,29.73,WSW,240,0.0,0.0,49,0.00,,---,0.00,VWS V14.01,2013-03-08 05:07:00,
2013-03-07 22:12:00,27.3,10.2,29.73,WNW,295,4.0,4.0,48,0.00,,---,0.00,VWS V14.01,2013-03-08 05:12:00,
2013-03-07 22:17:00,27.1,10.1,29.73,West,274,3.6,5.8,48,0.00,,---,0.00,VWS V14.01,2013-03-08 05:17:00,
2013-03-07 22:22:00,27.0,9.9,29.73,SW,230,5.8,5.8,48,0.00,,---,0.00,VWS V14.01,2013-03-08 05:22:00,
2013-03-07 22:27:00,26.8,9.7,29.73,West,259,3.6,6.3,48,0.00,,---,0.00,VWS V14.01,2013-03-08 05:27:00,
2013-03-07 22:32:00,26.6,10.0,29.73,WSW,243,3.6,4.9,49,0.00,,---,0.00,VWS V14.01,2013-03-08 05:32:00,
2013-03-07 22:37:00,26.4,9.9,29.73,West,268,5.8,5.8,49,0.00,,---,0.00,VWS V14.01,2013-03-08 05:37:00,
2013-03-07 22:42:00,26.2,9.7,29.73,WNW,285,2.2,3.1,49,0.00,,---,0.00,VWS V14.01,2013-03-08 05:42:00,
2013-03-07 22:46:00,26.2,9.7,29.73,WSW,250,3.1,3.6,49,0.00,,---,0.00,VWS V14.01,2013-03-08 05:46:00,
2013-03-07 22:52:00,26.2,9.2,29.73,West,274,3.6,3.6,48,0.00,,---,0.00,VWS V14.01,2013-03-08 05:52:00,
2013-03-07 22:57:00,26.1,9.1,29.73,WNW,284,5.4,5.4,48,0.00,,---,0.00,VWS V14.01,2013-03-08 05:57:00,
2013-03-07 23:02:00,26.1,8.6,29.73,WSW,248,4.0,5.4,47,0.00,,---,0.00,VWS V14.01,2013-03-08 06:02:00,
2013-03-07 23:07:00,26.1,8.6,29.73,West,269,5.8,5.8,47,0.00,,---,0.00,VWS V14.01,2013-03-08 06:07:00,
2013-03-07 23:12:00,25.9,8.4,29.73,WSW,245,6.3,6.3,47,0.00,,---,0.00,VWS V14.01,2013-03-08 06:12:00,
2013-03-07 23:16:00,25.7,8.7,29.73,WSW,256,4.0,4.9,48,0.00,,---,0.00,VWS V14.01,2013-03-08 06:16:00,
2013-03-07 23:21:00,25.7,9.2,29.73,West,278,4.0,4.9,49,0.00,,---,0.00,VWS V14.01,2013-03-08 06:21:00,
2013-03-07 23:26:00,25.5,9.0,29.73,WSW,258,4.9,5.4,49,0.00,,---,0.00,VWS V14.01,2013-03-08 06:26:00,
2013-03-07 23:31:00,25.3,8.9,29.73,WSW,257,4.0,5.8,49,0.00,,---,0.00,VWS V14.01,2013-03-08 06:31:00,
2013-03-07 23:36:00,25.2,9.1,29.70,West,270,5.8,5.8,50,0.00,,---,0.00,VWS V14.01,2013-03-08 06:36:00,
2013-03-07 23:41:00,25.2,9.6,29.70,WNW,283,3.6,5.8,51,0.00,,---,0.00,VWS V14.01,2013-03-08 06:41:00,
2013-03-07 23:46:00,25.0,9.4,29.70,West,267,5.8,6.3,51,0.00,,---,0.00,VWS V14.01,2013-03-08 06:46:00,
2013-03-07 23:51:00,24.8,9.2,29.70,WSW,254,8.1,8.1,51,0.00,,---,0.00,VWS V14.01,2013-03-08 06:51:00,
2013-03-07 23:56:00,24.6,9.1,29.70,WSW,251,4.9,8.1,51,0.00,,---,0.00,VWS V14.01,2013-03-08 06:56:00,